Stonewall, TX (78671)

8:17 PM CDT on August 30, 2014 (GMT -0500)
Fredericksburg Farms | Change Station
CLOSE
Current Station
Personal Weather Station
Location: Fredericksburg, TX
Elevation: 1847 ft
Nearby Weather Stations

Elev 1847 ft 30.14 °N, 98.73 °W | Updated 3 minutes ago

Partly Cloudy
Partly Cloudy
85.8 °F
Feels Like 88 °F
N
0.0
Wind Variable Wind from SE
Gusts 3.0 mph

Today
High -- | Low -- °F
--% Chance of Precip.
Yesterday
High -- | Low -- °F
Precip. -- in
7:10 AM 7:59 PM
Waxing Crescent, 26% visible
Pressure 29.93 in
Visibility 10.0 miles
Clouds Mostly Cloudy 6000 ft
Mostly Cloudy 8000 ft
Heat Index 88 °F
Dew Point 66 °F
Humidity 51%
Rainfall 0.00 in
Snow Depth Not available.
UV 0 out of 12
Pollen 9.00 out of 12
Air Quality Not available.
Flu Activity Not available.
METAR KT82 310055Z AUTO 14006KT 10SM VCTS BKN060 BKN080 31/17 A2993 RMK AO2 LTG DSNT W AND NW T03080167

More Conditions Fewer Conditions

Pressure 29.93 in
Visibility 10.0 miles
Clouds Mostly Cloudy 6000 ft
Mostly Cloudy 8000 ft
Heat Index 88 °F
Dew Point 66 °F
Humidity 51%
Rainfall 0.00 in
Snow Depth Not available.
UV 0 out of 12
Pollen 9.00 out of 12
Air Quality Not available.
Flu Activity Not available.
METAR KT82 310055Z AUTO 14006KT 10SM VCTS BKN060 BKN080 31/17 A2993 RMK AO2 LTG DSNT W AND NW T03080167

More Conditions Fewer Conditions

10-Day Weather Forecast

Almanac

Astronomy

Aug. 30, 2014 Rise Set
Actual Time 7:10 AM CDT 7:59 PM CDT
Civil Twilight 6:45 AM CDT 8:23 PM CDT
Nautical Twilight 6:16 AM CDT 8:52 PM CDT
Astronomical Twilight 5:47 AM CDT 9:22 PM CDT
Moon 11:36 AM CDT (8/30) 10:58 PM CDT (8/30)
Length of Visible Light 13h 38m
Length of Day
12h 49m
Tomorrow will be 1m 45s shorter.
Waxing Crescent, 26% of the Moon is Illuminated
Today
Waxing Crescent
Sep 2
First Quarter
Sep 8
Full
Sep 15
Last Quarter
Sep 24
New

Today's Extremes

State Highs State Lows

Community

WunderPhotos

Upload Photos

1,748,706 photos uploaded!

Nearby

Snow Depth

Station Depth Elevation
No new snow has been reported.

Earthquake Activity

City Distance Mag. Time & Date
No recent earthquake activity has been reported nearby.
Minimum magnitude displayed is 2.5.

Coastal Water Temperatures

Place Temperature
No Stations Reporting

Nearby Weather Stations